sensor_id;sensor_type;location;lat;lon;timestamp;P1;P2;P0
56360;PMS7003;42611;51.132;13.588;2023-06-14T00:01:01;8.3;8.0;
56360;PMS7003;42611;51.132;13.588;2023-06-14T00:06:01;8.6;8.3;
56360;PMS7003;42611;51.132;13.588;2023-06-14T00:11:01;8.2;7.9;
56360;PMS7003;42611;51.132;13.588;2023-06-14T00:16:01;8.1;7.9;
56360;PMS7003;42611;51.132;13.588;2023-06-14T00:21:01;7.9;7.9;
56360;PMS7003;42611;51.132;13.588;2023-06-14T00:26:02;8.0;8.0;
56360;PMS7003;42611;51.132;13.588;2023-06-14T00:31:01;8.4;8.4;
56360;PMS7003;42611;51.132;13.588;2023-06-14T00:36:02;9.2;9.2;
56360;PMS7003;42611;51.132;13.588;2023-06-14T00:41:02;8.8;8.8;
56360;PMS7003;42611;51.132;13.588;2023-06-14T00:46:01;9.0;9.0;
56360;PMS7003;42611;51.132;13.588;2023-06-14T00:51:01;9.1;9.0;
56360;PMS7003;42611;51.132;13.588;2023-06-14T00:56:01;8.4;8.2;
56360;PMS7003;42611;51.132;13.588;2023-06-14T01:01:01;7.3;7.3;
56360;PMS7003;42611;51.132;13.588;2023-06-14T01:06:15;7.7;7.7;
56360;PMS7003;42611;51.132;13.588;2023-06-14T01:11:07;8.0;8.0;
56360;PMS7003;42611;51.132;13.588;2023-06-14T01:16:02;8.2;8.0;
56360;PMS7003;42611;51.132;13.588;2023-06-14T01:21:01;7.8;7.6;
56360;PMS7003;42611;51.132;13.588;2023-06-14T01:26:01;8.4;8.2;
56360;PMS7003;42611;51.132;13.588;2023-06-14T01:31:02;8.8;8.6;
56360;PMS7003;42611;51.132;13.588;2023-06-14T01:41:02;9.0;8.8;
56360;PMS7003;42611;51.132;13.588;2023-06-14T01:46:01;9.6;9.4;
56360;PMS7003;42611;51.132;13.588;2023-06-14T01:51:01;9.4;9.0;
56360;PMS7003;42611;51.132;13.588;2023-06-14T01:56:01;9.2;8.8;
56360;PMS7003;42611;51.132;13.588;2023-06-14T02:01:01;8.7;8.2;
56360;PMS7003;42611;51.132;13.588;2023-06-14T02:11:01;9.0;8.4;
56360;PMS7003;42611;51.132;13.588;2023-06-14T02:16:01;8.7;8.4;
56360;PMS7003;42611;51.132;13.588;2023-06-14T02:21:02;9.3;8.8;
56360;PMS7003;42611;51.132;13.588;2023-06-14T02:26:01;9.4;8.9;
56360;PMS7003;42611;51.132;13.588;2023-06-14T02:36:03;10.1;9.7;
56360;PMS7003;42611;51.132;13.588;2023-06-14T02:41:01;10.6;10.0;
56360;PMS7003;42611;51.132;13.588;2023-06-14T02:46:01;10.3;9.6;
56360;PMS7003;42611;51.132;13.588;2023-06-14T02:51:01;10.8;10.0;
56360;PMS7003;42611;51.132;13.588;2023-06-14T02:56:02;11.0;10.2;
56360;PMS7003;42611;51.132;13.588;2023-06-14T03:01:01;10.4;9.8;
56360;PMS7003;42611;51.132;13.588;2023-06-14T03:06:01;10.7;10.4;
56360;PMS7003;42611;51.132;13.588;2023-06-14T03:11:01;11.4;11.4;
56360;PMS7003;42611;51.132;13.588;2023-06-14T03:16:01;12.3;12.0;
56360;PMS7003;42611;51.132;13.588;2023-06-14T03:26:02;12.5;12.3;
56360;PMS7003;42611;51.132;13.588;2023-06-14T03:31:01;12.4;12.2;
56360;PMS7003;42611;51.132;13.588;2023-06-14T03:36:01;12.0;11.8;
56360;PMS7003;42611;51.132;13.588;2023-06-14T03:41:01;11.6;11.4;
56360;PMS7003;42611;51.132;13.588;2023-06-14T03:46:01;12.0;11.7;
56360;PMS7003;42611;51.132;13.588;2023-06-14T03:51:02;12.2;11.8;
56360;PMS7003;42611;51.132;13.588;2023-06-14T03:56:01;12.7;12.3;
56360;PMS7003;42611;51.132;13.588;2023-06-14T04:01:01;12.6;12.2;
56360;PMS7003;42611;51.132;13.588;2023-06-14T04:06:02;12.3;11.9;
56360;PMS7003;42611;51.132;13.588;2023-06-14T04:11:01;13.2;12.6;
56360;PMS7003;42611;51.132;13.588;2023-06-14T04:16:01;13.0;12.4;
56360;PMS7003;42611;51.132;13.588;2023-06-14T04:26:01;14.2;13.2;
56360;PMS7003;42611;51.132;13.588;2023-06-14T04:31:02;15.7;14.4;
56360;PMS7003;42611;51.132;13.588;2023-06-14T04:36:01;15.0;14.2;
56360;PMS7003;42611;51.132;13.588;2023-06-14T04:41:02;16.5;15.5;
56360;PMS7003;42611;51.132;13.588;2023-06-14T04:46:02;17.8;16.6;
56360;PMS7003;42611;51.132;13.588;2023-06-14T04:51:01;17.3;16.4;
56360;PMS7003;42611;51.132;13.588;2023-06-14T04:56:02;16.1;15.6;
56360;PMS7003;42611;51.132;13.588;2023-06-14T05:01:02;17.6;16.8;
56360;PMS7003;42611;51.132;13.588;2023-06-14T05:07:01;16.7;16.1;
56360;PMS7003;42611;51.132;13.588;2023-06-14T05:22:03;18.2;17.2;
56360;PMS7003;42611;51.132;13.588;2023-06-14T05:27:02;16.9;16.1;
56360;PMS7003;42611;51.132;13.588;2023-06-14T05:32:02;18.0;17.0;
56360;PMS7003;42611;51.132;13.588;2023-06-14T05:37:01;17.7;17.2;
56360;PMS7003;42611;51.132;13.588;2023-06-14T05:42:02;17.5;16.8;
56360;PMS7003;42611;51.132;13.588;2023-06-14T05:47:01;17.0;16.6;
56360;PMS7003;42611;51.132;13.588;2023-06-14T05:52:01;17.9;17.5;
56360;PMS7003;42611;51.132;13.588;2023-06-14T05:57:02;17.5;17.2;
56360;PMS7003;42611;51.132;13.588;2023-06-14T06:02:02;17.8;17.5;
56360;PMS7003;42611;51.132;13.588;2023-06-14T06:08:01;18.6;18.5;
56360;PMS7003;42611;51.132;13.588;2023-06-14T06:18:07;18.0;17.9;
56360;PMS7003;42611;51.132;13.588;2023-06-14T06:23:04;17.6;17.6;
56360;PMS7003;42611;51.132;13.588;2023-06-14T06:28:01;17.4;17.2;
56360;PMS7003;42611;51.132;13.588;2023-06-14T06:33:02;16.8;16.4;
56360;PMS7003;42611;51.132;13.588;2023-06-14T06:43:02;16.4;15.5;
56360;PMS7003;42611;51.132;13.588;2023-06-14T06:53:07;15.8;14.8;
56360;PMS7003;42611;51.132;13.588;2023-06-14T06:58:01;15.2;14.5;
56360;PMS7003;42611;51.132;13.588;2023-06-14T07:03:02;15.1;14.4;
56360;PMS7003;42611;51.132;13.588;2023-06-14T07:08:01;14.8;14.5;
56360;PMS7003;42611;51.132;13.588;2023-06-14T07:18:01;14.7;14.3;
56360;PMS7003;42611;51.132;13.588;2023-06-14T07:23:04;14.8;14.2;
56360;PMS7003;42611;51.132;13.588;2023-06-14T07:28:01;14.7;14.0;
56360;PMS7003;42611;51.132;13.588;2023-06-14T07:33:01;14.3;13.4;
56360;PMS7003;42611;51.132;13.588;2023-06-14T07:38:06;13.2;12.8;
56360;PMS7003;42611;51.132;13.588;2023-06-14T07:43:07;12.6;12.0;
56360;PMS7003;42611;51.132;13.588;2023-06-14T07:48:02;11.7;11.1;
56360;PMS7003;42611;51.132;13.588;2023-06-14T07:53:01;10.6;10.2;
56360;PMS7003;42611;51.132;13.588;2023-06-14T07:58:03;9.6;9.4;
56360;PMS7003;42611;51.132;13.588;2023-06-14T08:03:02;9.7;9.4;
56360;PMS7003;42611;51.132;13.588;2023-06-14T08:08:06;9.8;9.7;
56360;PMS7003;42611;51.132;13.588;2023-06-14T08:18:01;9.4;9.2;
56360;PMS7003;42611;51.132;13.588;2023-06-14T08:23:07;9.2;9.0;
56360;PMS7003;42611;51.132;13.588;2023-06-14T08:33:18;8.6;8.4;
56360;PMS7003;42611;51.132;13.588;2023-06-14T08:38:06;8.2;8.0;
56360;PMS7003;42611;51.132;13.588;2023-06-14T08:43:02;8.6;8.2;
56360;PMS7003;42611;51.132;13.588;2023-06-14T08:48:03;9.2;8.7;
56360;PMS7003;42611;51.132;13.588;2023-06-14T08:53:08;8.8;8.3;
56360;PMS7003;42611;51.132;13.588;2023-06-14T08:58:02;9.5;9.0;
56360;PMS7003;42611;51.132;13.588;2023-06-14T09:03:07;9.4;9.0;
56360;PMS7003;42611;51.132;13.588;2023-06-14T09:08:07;8.8;8.7;
56360;PMS7003;42611;51.132;13.588;2023-06-14T09:13:02;8.5;8.5;
56360;PMS7003;42611;51.132;13.588;2023-06-14T09:18:02;8.3;8.3;
56360;PMS7003;42611;51.132;13.588;2023-06-14T09:23:02;7.9;7.9;
56360;PMS7003;42611;51.132;13.588;2023-06-14T09:28:01;8.0;8.0;
56360;PMS7003;42611;51.132;13.588;2023-06-14T09:33:06;8.6;8.5;
56360;PMS7003;42611;51.132;13.588;2023-06-14T09:38:06;9.0;8.7;
56360;PMS7003;42611;51.132;13.588;2023-06-14T09:43:01;8.8;8.5;
56360;PMS7003;42611;51.132;13.588;2023-06-14T09:53:09;8.9;8.6;
56360;PMS7003;42611;51.132;13.588;2023-06-14T09:58:08;8.8;8.6;
56360;PMS7003;42611;51.132;13.588;2023-06-14T10:03:11;8.4;8.4;
56360;PMS7003;42611;51.132;13.588;2023-06-14T10:08:10;9.1;8.9;
56360;PMS7003;42611;51.132;13.588;2023-06-14T10:13:01;9.8;9.2;
56360;PMS7003;42611;51.132;13.588;2023-06-14T10:18:08;10.1;9.4;
56360;PMS7003;42611;51.132;13.588;2023-06-14T10:23:09;9.4;8.7;
56360;PMS7003;42611;51.132;13.588;2023-06-14T10:33:04;8.6;8.0;
56360;PMS7003;42611;51.132;13.588;2023-06-14T10:38:09;7.8;7.8;
56360;PMS7003;42611;51.132;13.588;2023-06-14T10:48:01;8.0;7.9;
56360;PMS7003;42611;51.132;13.588;2023-06-14T10:53:21;8.2;8.2;
56360;PMS7003;42611;51.132;13.588;2023-06-14T10:58:03;8.8;8.7;
56360;PMS7003;42611;51.132;13.588;2023-06-14T11:03:31;8.4;8.3;
56360;PMS7003;42611;51.132;13.588;2023-06-14T11:08:08;8.1;8.0;
56360;PMS7003;42611;51.132;13.588;2023-06-14T11:13:01;8.4;8.2;
56360;PMS7003;42611;51.132;13.588;2023-06-14T11:18:07;8.1;8.0;
56360;PMS7003;42611;51.132;13.588;2023-06-14T11:23:21;8.3;7.8;
56360;PMS7003;42611;51.132;13.588;2023-06-14T11:28:01;8.6;8.1;
56360;PMS7003;42611;51.132;13.588;2023-06-14T11:33:11;9.0;8.5;
56360;PMS7003;42611;51.132;13.588;2023-06-14T11:38:02;9.7;9.0;
56360;PMS7003;42611;51.132;13.588;2023-06-14T11:43:01;11.0;9.8;
56360;PMS7003;42611;51.132;13.588;2023-06-14T11:48:06;10.7;10.0;
56360;PMS7003;42611;51.132;13.588;2023-06-14T11:53:06;11.4;10.7;
56360;PMS7003;42611;51.132;13.588;2023-06-14T11:58:06;11.6;10.9;
56360;PMS7003;42611;51.132;13.588;2023-06-14T12:03:06;10.6;10.2;
56360;PMS7003;42611;51.132;13.588;2023-06-14T12:08:06;9.8;9.8;
56360;PMS7003;42611;51.132;13.588;2023-06-14T12:13:02;11.2;11.0;
56360;PMS7003;42611;51.132;13.588;2023-06-14T12:18:04;11.3;11.0;
56360;PMS7003;42611;51.132;13.588;2023-06-14T12:33:08;13.0;12.7;
56360;PMS7003;42611;51.132;13.588;2023-06-14T12:39:02;12.4;12.4;
56360;PMS7003;42611;51.132;13.588;2023-06-14T12:44:06;12.7;12.6;
56360;PMS7003;42611;51.132;13.588;2023-06-14T12:49:01;13.8;13.4;
56360;PMS7003;42611;51.132;13.588;2023-06-14T12:54:01;14.7;14.2;
56360;PMS7003;42611;51.132;13.588;2023-06-14T12:59:06;14.9;14.4;
56360;PMS7003;42611;51.132;13.588;2023-06-14T13:04:08;15.1;14.6;
56360;PMS7003;42611;51.132;13.588;2023-06-14T13:09:06;15.9;15.2;
56360;PMS7003;42611;51.132;13.588;2023-06-14T13:14:27;14.8;14.6;
56360;PMS7003;42611;51.132;13.588;2023-06-14T13:19:06;14.1;13.8;
56360;PMS7003;42611;51.132;13.588;2023-06-14T13:24:13;14.0;13.3;
56360;PMS7003;42611;51.132;13.588;2023-06-14T13:29:06;13.8;13.1;
56360;PMS7003;42611;51.132;13.588;2023-06-14T13:34:01;13.1;12.5;
56360;PMS7003;42611;51.132;13.588;2023-06-14T13:39:03;14.0;13.4;
56360;PMS7003;42611;51.132;13.588;2023-06-14T13:44:02;14.6;14.0;
56360;PMS7003;42611;51.132;13.588;2023-06-14T13:49:01;14.3;13.8;
56360;PMS7003;42611;51.132;13.588;2023-06-14T13:59:12;13.8;12.9;
56360;PMS7003;42611;51.132;13.588;2023-06-14T14:04:01;12.9;11.8;
56360;PMS7003;42611;51.132;13.588;2023-06-14T14:09:07;11.4;10.3;
56360;PMS7003;42611;51.132;13.588;2023-06-14T14:14:21;11.5;10.7;
56360;PMS7003;42611;51.132;13.588;2023-06-14T14:19:08;11.4;10.8;
56360;PMS7003;42611;51.132;13.588;2023-06-14T14:25:07;11.0;10.6;
56360;PMS7003;42611;51.132;13.588;2023-06-14T14:30:05;11.3;11.0;
56360;PMS7003;42611;51.132;13.588;2023-06-14T14:35:02;11.6;11.4;
56360;PMS7003;42611;51.132;13.588;2023-06-14T14:40:08;10.6;10.5;
56360;PMS7003;42611;51.132;13.588;2023-06-14T14:45:02;10.3;10.2;
56360;PMS7003;42611;51.132;13.588;2023-06-14T14:50:01;9.8;9.7;
56360;PMS7003;42611;51.132;13.588;2023-06-14T14:55:02;9.0;9.0;
56360;PMS7003;42611;51.132;13.588;2023-06-14T15:00:08;8.8;8.7;
56360;PMS7003;42611;51.132;13.588;2023-06-14T15:05:01;8.9;8.6;
56360;PMS7003;42611;51.132;13.588;2023-06-14T15:10:01;8.6;8.0;
56360;PMS7003;42611;51.132;13.588;2023-06-14T15:15:09;8.6;8.1;
56360;PMS7003;42611;51.132;13.588;2023-06-14T15:20:07;8.7;8.0;
56360;PMS7003;42611;51.132;13.588;2023-06-14T15:25:08;8.6;7.6;
56360;PMS7003;42611;51.132;13.588;2023-06-14T15:30:07;8.1;7.3;
56360;PMS7003;42611;51.132;13.588;2023-06-14T15:35:02;7.7;7.1;
56360;PMS7003;42611;51.132;13.588;2023-06-14T15:40:12;7.8;7.3;
56360;PMS7003;42611;51.132;13.588;2023-06-14T15:45:07;7.7;7.3;
56360;PMS7003;42611;51.132;13.588;2023-06-14T15:50:01;7.9;7.9;
56360;PMS7003;42611;51.132;13.588;2023-06-14T15:55:06;8.8;8.8;
56360;PMS7003;42611;51.132;13.588;2023-06-14T16:00:07;9.4;9.1;
56360;PMS7003;42611;51.132;13.588;2023-06-14T16:05:07;9.2;8.6;
56360;PMS7003;42611;51.132;13.588;2023-06-14T16:10:01;9.3;8.8;
56360;PMS7003;42611;51.132;13.588;2023-06-14T16:15:02;9.5;8.8;
56360;PMS7003;42611;51.132;13.588;2023-06-14T16:20:03;9.3;8.6;
56360;PMS7003;42611;51.132;13.588;2023-06-14T16:25:01;8.7;8.4;
56360;PMS7003;42611;51.132;13.588;2023-06-14T16:30:03;8.9;8.7;
56360;PMS7003;42611;51.132;13.588;2023-06-14T16:35:06;8.6;8.4;
56360;PMS7003;42611;51.132;13.588;2023-06-14T16:40:07;8.1;8.0;
56360;PMS7003;42611;51.132;13.588;2023-06-14T16:45:02;7.6;7.6;
56360;PMS7003;42611;51.132;13.588;2023-06-14T16:50:02;8.1;8.1;
56360;PMS7003;42611;51.132;13.588;2023-06-14T16:55:05;8.8;8.8;
56360;PMS7003;42611;51.132;13.588;2023-06-14T17:00:07;9.5;9.5;
56360;PMS7003;42611;51.132;13.588;2023-06-14T17:05:07;10.4;10.3;
56360;PMS7003;42611;51.132;13.588;2023-06-14T17:10:06;11.2;10.7;
56360;PMS7003;42611;51.132;13.588;2023-06-14T17:15:04;10.8;10.3;
56360;PMS7003;42611;51.132;13.588;2023-06-14T17:20:07;10.7;10.0;
56360;PMS7003;42611;51.132;13.588;2023-06-14T17:25:02;11.2;10.2;
56360;PMS7003;42611;51.132;13.588;2023-06-14T17:30:07;11.0;9.8;
56360;PMS7003;42611;51.132;13.588;2023-06-14T17:35:07;11.1;10.4;
56360;PMS7003;42611;51.132;13.588;2023-06-14T17:40:16;12.3;11.6;
56360;PMS7003;42611;51.132;13.588;2023-06-14T17:45:01;12.2;11.6;
56360;PMS7003;42611;51.132;13.588;2023-06-14T17:50:06;11.7;11.2;
56360;PMS7003;42611;51.132;13.588;2023-06-14T17:55:03;11.8;11.4;
56360;PMS7003;42611;51.132;13.588;2023-06-14T18:00:07;11.6;11.0;
56360;PMS7003;42611;51.132;13.588;2023-06-14T18:05:07;11.0;10.4;
56360;PMS7003;42611;51.132;13.588;2023-06-14T18:10:08;11.2;10.6;
56360;PMS7003;42611;51.132;13.588;2023-06-14T18:15:07;11.2;10.6;
56360;PMS7003;42611;51.132;13.588;2023-06-14T18:20:06;11.8;11.3;
56360;PMS7003;42611;51.132;13.588;2023-06-14T18:25:06;12.2;12.0;
56360;PMS7003;42611;51.132;13.588;2023-06-14T18:30:08;12.5;12.3;
56360;PMS7003;42611;51.132;13.588;2023-06-14T18:35:07;13.1;12.8;
56360;PMS7003;42611;51.132;13.588;2023-06-14T18:40:02;13.0;12.8;
56360;PMS7003;42611;51.132;13.588;2023-06-14T18:45:08;12.7;12.3;
56360;PMS7003;42611;51.132;13.588;2023-06-14T18:50:06;12.6;12.2;
56360;PMS7003;42611;51.132;13.588;2023-06-14T19:00:02;12.0;11.8;
56360;PMS7003;42611;51.132;13.588;2023-06-14T19:05:07;13.0;12.8;
56360;PMS7003;42611;51.132;13.588;2023-06-14T19:10:06;12.5;12.5;
56360;PMS7003;42611;51.132;13.588;2023-06-14T19:15:07;12.6;12.6;
56360;PMS7003;42611;51.132;13.588;2023-06-14T19:20:03;12.7;12.7;
56360;PMS7003;42611;51.132;13.588;2023-06-14T19:25:02;12.9;12.9;
56360;PMS7003;42611;51.132;13.588;2023-06-14T19:30:08;12.2;12.2;
56360;PMS7003;42611;51.132;13.588;2023-06-14T19:35:04;12.5;12.5;
56360;PMS7003;42611;51.132;13.588;2023-06-14T19:45:09;13.0;12.7;
56360;PMS7003;42611;51.132;13.588;2023-06-14T19:51:07;13.3;12.9;
56360;PMS7003;42611;51.132;13.588;2023-06-14T19:56:14;14.0;13.6;
56360;PMS7003;42611;51.132;13.588;2023-06-14T20:01:08;14.8;14.1;
56360;PMS7003;42611;51.132;13.588;2023-06-14T20:06:01;16.2;15.6;
56360;PMS7003;42611;51.132;13.588;2023-06-14T20:16:08;17.3;16.5;
56360;PMS7003;42611;51.132;13.588;2023-06-14T20:21:02;17.4;16.6;
56360;PMS7003;42611;51.132;13.588;2023-06-14T20:26:01;17.0;16.2;
56360;PMS7003;42611;51.132;13.588;2023-06-14T20:31:07;15.6;14.8;
56360;PMS7003;42611;51.132;13.588;2023-06-14T20:36:06;15.3;14.4;
56360;PMS7003;42611;51.132;13.588;2023-06-14T20:41:07;14.4;13.4;
56360;PMS7003;42611;51.132;13.588;2023-06-14T20:46:01;13.8;12.8;
56360;PMS7003;42611;51.132;13.588;2023-06-14T20:51:01;13.0;12.3;
56360;PMS7003;42611;51.132;13.588;2023-06-14T20:56:01;12.9;11.8;
56360;PMS7003;42611;51.132;13.588;2023-06-14T21:01:09;13.0;11.8;
56360;PMS7003;42611;51.132;13.588;2023-06-14T21:06:08;12.4;11.6;
56360;PMS7003;42611;51.132;13.588;2023-06-14T21:11:06;12.1;11.3;
56360;PMS7003;42611;51.132;13.588;2023-06-14T21:16:02;12.0;11.4;
56360;PMS7003;42611;51.132;13.588;2023-06-14T21:21:17;11.6;11.3;
56360;PMS7003;42611;51.132;13.588;2023-06-14T21:31:06;11.9;11.6;
56360;PMS7003;42611;51.132;13.588;2023-06-14T21:36:06;11.8;11.1;
56360;PMS7003;42611;51.132;13.588;2023-06-14T21:41:02;12.2;11.4;
56360;PMS7003;42611;51.132;13.588;2023-06-14T21:46:05;12.3;11.5;
56360;PMS7003;42611;51.132;13.588;2023-06-14T21:51:02;13.8;12.1;
56360;PMS7003;42611;51.132;13.588;2023-06-14T22:01:11;14.7;13.5;
56360;PMS7003;42611;51.132;13.588;2023-06-14T22:06:01;15.2;13.3;
56360;PMS7003;42611;51.132;13.588;2023-06-14T22:11:06;15.5;13.5;
56360;PMS7003;42611;51.132;13.588;2023-06-14T22:16:06;13.0;12.0;
56360;PMS7003;42611;51.132;13.588;2023-06-14T22:21:02;11.9;10.9;
56360;PMS7003;42611;51.132;13.588;2023-06-14T22:26:02;11.3;10.5;
56360;PMS7003;42611;51.132;13.588;2023-06-14T22:31:01;11.0;10.8;
56360;PMS7003;42611;51.132;13.588;2023-06-14T22:36:01;10.7;10.4;
56360;PMS7003;42611;51.132;13.588;2023-06-14T22:41:01;11.1;10.8;
56360;PMS7003;42611;51.132;13.588;2023-06-14T22:46:07;11.4;11.1;
56360;PMS7003;42611;51.132;13.588;2023-06-14T22:51:06;12.5;11.3;
56360;PMS7003;42611;51.132;13.588;2023-06-14T22:56:06;12.3;11.3;
56360;PMS7003;42611;51.132;13.588;2023-06-14T23:01:07;12.7;11.8;
56360;PMS7003;42611;51.132;13.588;2023-06-14T23:06:06;12.5;11.7;
56360;PMS7003;42611;51.132;13.588;2023-06-14T23:11:01;13.1;12.3;
56360;PMS7003;42611;51.132;13.588;2023-06-14T23:16:06;11.8;11.8;
56360;PMS7003;42611;51.132;13.588;2023-06-14T23:21:01;11.4;11.4;
56360;PMS7003;42611;51.132;13.588;2023-06-14T23:26:06;11.8;11.8;
56360;PMS7003;42611;51.132;13.588;2023-06-14T23:31:01;12.8;12.4;
56360;PMS7003;42611;51.132;13.588;2023-06-14T23:41:07;13.2;12.7;
56360;PMS7003;42611;51.132;13.588;2023-06-14T23:46:02;13.0;12.5;
56360;PMS7003;42611;51.132;13.588;2023-06-14T23:51:01;12.4;11.9;
56360;PMS7003;42611;51.132;13.588;2023-06-14T23:56:01;12.2;11.6;
